Kivalina Airport

About
Name: Kivalina Airport
Identifier:  KVL/PAVL
Owner:  State of Alaska DOT&PF - Northern Region
Public/Private:  Public
Local Time:  19. Aug 17:32 AKDT
Description: Kivalina Airport is a state-owned public-use airport located in Kivalina, a city in the Northwest Arctic Borough of the U.S. state of Alaska.
Source: Wikipedia
Location
Runways
Identifier Length (m/ft) Surface
12/30 3,000/3,000 Gravel
Flights per Day
3 flights
Distance: 111km (69mi)
Punctuality
85% (0 flights per day delayed)
Delay Average: 35 minutes
Current Weather
 15 C (Humidity: 72%)
  8kt (14km/h / 9mph) from 270°
  11km (7 mi.)
 
 METAR PAVL 200053Z AUTO 27008KT 7SM CLR 15/10 A3006 RMK AO2 SLP178 T01500100 TSNO

Current Flights

Departures
Number Departure To Airline
Arrivals
Number Arrival From Airline

Current Delays

Departures
N/A
Arrivals
N/A

Destinations

Top Destinations
Airport Flights
per week
Seats
per week
  Kotzebue (OTZ) 1 - 0 0
  Point Hope (PHO) 0 - 0 0

Airlines & Planes

Top Airlines
Airline Flights
per Day
Seats
per Day
Bering Air 0 -
Top Plane Types
Model Flights Seats
Piper PA-31-350 0.1/day - 0
Beech B200 Super King Air 0.1/day - 0